Schedule Details


Flight Number: CTN367
Departure: Skopje-Petrovec (LWSK) at 05:45
Arrival: Zagreb / Pleso (LDZA) at 07:25
Route: GOSTI P92 MAVAR Y400 RETRA L604 BOSNA L608 KOMAR L187 TEBLI

Weather Information
LWSK 192100Z 00000KT CAVOK 10/06 Q1019 NOSIG
LDZA 192100Z 22002KT CAVOK 10/07 Q1017 NOSIG
Schedule Frequency

Route Map